createdAt,value
2022-09-02T00:01:54.945Z,17.15
2022-09-02T00:04:24.625Z,17.15
2022-09-02T00:06:53.933Z,16.91
2022-09-02T00:09:22.427Z,17.11
2022-09-02T00:11:51.024Z,17.11
2022-09-02T00:14:22.488Z,17.09
2022-09-02T00:16:52.673Z,17.06
2022-09-02T00:19:25.205Z,16.89
2022-09-02T00:21:53.945Z,16.98
2022-09-02T00:24:21.338Z,16.97
2022-09-02T00:26:47.845Z,16.92
2022-09-02T00:29:15.417Z,16.92
2022-09-02T00:31:43.771Z,16.91
2022-09-02T00:34:10.845Z,16.94
2022-09-02T00:36:38.166Z,16.85
2022-09-02T00:39:07.507Z,16.82
2022-09-02T00:41:35.003Z,16.74
2022-09-02T00:44:05.702Z,16.74
2022-09-02T00:46:33.569Z,16.74
2022-09-02T00:49:43.726Z,16.69
2022-09-02T00:52:26.057Z,16.65
2022-09-02T00:55:02.573Z,16.62
2022-09-02T00:57:34.059Z,16.56
2022-09-02T01:00:12.202Z,16.61
2022-09-02T01:02:41.672Z,16.54
2022-09-02T01:05:12.609Z,16.50
2022-09-02T01:07:39.989Z,16.50
2022-09-02T01:10:10.817Z,16.47
2022-09-02T01:12:38.155Z,16.43
2022-09-02T01:15:07.255Z,16.30
2022-09-02T01:17:34.837Z,16.34
2022-09-02T01:20:12.118Z,16.31
2022-09-02T01:22:39.930Z,16.34
2022-09-02T01:25:12.293Z,16.37
2022-09-02T01:27:39.476Z,16.36
2022-09-02T01:30:08.284Z,16.23
2022-09-02T01:32:34.900Z,16.23
2022-09-02T01:35:01.533Z,16.17
2022-09-02T01:37:28.255Z,16.14
2022-09-02T01:39:56.017Z,16.17
2022-09-02T01:42:22.591Z,16.16
2022-09-02T01:44:49.096Z,16.18
2022-09-02T01:47:19.341Z,16.15
2022-09-02T01:49:46.597Z,16.10
2022-09-02T01:52:14.638Z,16.09
2022-09-02T01:54:41.577Z,16.05
2022-09-02T01:57:08.897Z,16.02
2022-09-02T01:59:35.319Z,16.00
2022-09-02T02:02:02.529Z,16.01
2022-09-02T02:04:29.064Z,15.92
2022-09-02T02:06:56.810Z,15.90
2022-09-02T02:09:23.926Z,15.87
2022-09-02T02:11:51.218Z,15.87
2022-09-02T02:14:18.017Z,15.78
2022-09-02T02:16:44.661Z,15.65
2022-09-02T02:19:11.183Z,15.62
2022-09-02T02:21:37.666Z,15.59
2022-09-02T02:24:04.248Z,15.61
2022-09-02T02:26:31.381Z,15.61
2022-09-02T02:28:59.909Z,15.49
2022-09-02T02:31:26.654Z,15.44
2022-09-02T02:33:53.323Z,15.40
2022-09-02T02:36:20.143Z,15.38
2022-09-02T02:38:46.791Z,15.31
2022-09-02T02:41:14.984Z,15.27
2022-09-02T02:43:42.485Z,15.30
2022-09-02T02:46:09.195Z,15.28
2022-09-02T02:48:36.770Z,15.24
2022-09-02T02:51:04.099Z,15.17
2022-09-02T02:53:31.338Z,15.10
2022-09-02T02:55:59.519Z,15.08
2022-09-02T02:58:26.493Z,15.09
2022-09-02T03:00:52.951Z,15.11
2022-09-02T03:03:19.979Z,15.11
2022-09-02T03:05:47.556Z,15.06
2022-09-02T03:08:14.017Z,14.94
2022-09-02T03:10:42.085Z,14.92
2022-09-02T03:13:11.105Z,14.86
2022-09-02T03:15:39.111Z,14.86
2022-09-02T03:18:06.178Z,14.84
2022-09-02T03:20:32.648Z,14.80
2022-09-02T03:23:00.491Z,14.83
2022-09-02T03:25:35.430Z,14.72
2022-09-02T03:28:04.423Z,14.81
2022-09-02T03:30:31.689Z,14.78
2022-09-02T03:33:04.242Z,14.74
2022-09-02T03:35:32.269Z,14.66
2022-09-02T03:38:00.515Z,14.68
2022-09-02T03:40:28.350Z,14.70
2022-09-02T03:42:59.897Z,14.68
2022-09-02T03:45:27.429Z,14.63
2022-09-02T03:47:56.824Z,14.62
2022-09-02T03:50:30.101Z,14.55
2022-09-02T03:52:57.764Z,14.54
2022-09-02T03:55:24.625Z,14.52
2022-09-02T03:57:52.400Z,14.44
2022-09-02T04:00:21.241Z,14.36
2022-09-02T04:02:50.132Z,14.37
2022-09-02T04:05:17.734Z,14.37
2022-09-02T04:07:47.133Z,14.37
2022-09-02T04:10:14.947Z,14.36
2022-09-02T04:12:41.814Z,14.31
2022-09-02T04:15:10.142Z,14.29
2022-09-02T04:17:38.167Z,14.34
2022-09-02T04:20:07.191Z,14.36
2022-09-02T04:22:34.221Z,14.35
2022-09-02T04:25:00.732Z,14.37
2022-09-02T04:27:27.425Z,14.31
2022-09-02T04:29:53.977Z,14.23
2022-09-02T04:32:21.769Z,14.36
2022-09-02T04:34:49.875Z,14.33
2022-09-02T04:37:16.906Z,14.35
2022-09-02T04:39:43.413Z,14.29
2022-09-02T04:42:10.043Z,14.29
2022-09-02T04:44:36.502Z,14.23
2022-09-02T04:47:03.114Z,14.16
2022-09-02T04:49:32.353Z,14.11
2022-09-02T04:52:00.153Z,14.07
2022-09-02T04:54:27.240Z,14.07
2022-09-02T04:56:53.974Z,14.07
2022-09-02T04:59:21.332Z,14.05
2022-09-02T05:01:48.204Z,14.02
2022-09-02T05:04:14.808Z,14.03
2022-09-02T05:06:44.401Z,14.08
2022-09-02T05:09:11.279Z,14.11
2022-09-02T05:11:38.751Z,14.11
2022-09-02T05:14:06.845Z,14.09
2022-09-02T05:16:37.194Z,14.05
2022-09-02T05:19:05.812Z,14.04
2022-09-02T05:21:32.328Z,14.01
2022-09-02T05:24:00.939Z,14.00
2022-09-02T05:26:27.555Z,13.99
2022-09-02T05:28:54.076Z,13.96
2022-09-02T05:31:21.746Z,14.03
2022-09-02T05:33:48.786Z,14.00
2022-09-02T05:36:18.281Z,14.00
2022-09-02T05:38:46.060Z,14.08
2022-09-02T05:41:23.628Z,14.10
2022-09-02T05:43:53.168Z,14.09
2022-09-02T05:46:23.275Z,14.19
2022-09-02T05:49:06.425Z,14.18
2022-09-02T05:51:57.812Z,14.26
2022-09-02T05:54:28.666Z,14.30
2022-09-02T05:56:57.835Z,14.38
2022-09-02T05:59:26.947Z,14.39
2022-09-02T06:01:54.531Z,14.37
2022-09-02T06:04:22.495Z,14.42
2022-09-02T06:06:50.414Z,14.45
2022-09-02T06:09:19.576Z,14.47
2022-09-02T06:11:49.383Z,14.48
2022-09-02T06:14:25.389Z,14.54
2022-09-02T06:16:53.747Z,14.56
2022-09-02T06:19:21.378Z,14.42
2022-09-02T06:21:49.219Z,14.55
2022-09-02T06:24:16.122Z,14.58
2022-09-02T06:26:43.245Z,14.59
2022-09-02T06:29:10.759Z,14.67
2022-09-02T06:31:40.322Z,14.65
2022-09-02T06:34:06.972Z,14.72
2022-09-02T06:36:33.481Z,14.82
2022-09-02T06:39:00.918Z,14.91
2022-09-02T06:41:31.422Z,14.92
2022-09-02T06:44:00.658Z,15.11
2022-09-02T06:46:33.489Z,15.27
2022-09-02T06:49:00.282Z,15.41
2022-09-02T06:51:36.324Z,15.60
2022-09-02T06:54:04.035Z,15.67
2022-09-02T06:56:30.777Z,15.79
2022-09-02T06:58:58.288Z,15.90
2022-09-02T07:01:28.788Z,16.05
2022-09-02T07:04:14.235Z,16.10
2022-09-02T07:06:43.571Z,16.28
2022-09-02T07:09:11.647Z,16.22
2022-09-02T07:11:38.762Z,16.27
2022-09-02T07:14:06.590Z,16.31
2022-09-02T07:16:43.408Z,16.24
2022-09-02T07:19:15.090Z,16.49
2022-09-02T07:21:44.251Z,16.50
2022-09-02T07:24:12.876Z,16.57
2022-09-02T07:26:40.458Z,16.71
2022-09-02T07:29:08.791Z,16.80
2022-09-02T07:31:42.045Z,16.86
2022-09-02T07:34:09.948Z,16.91
2022-09-02T07:36:38.225Z,17.02
2022-09-02T07:39:07.740Z,17.02
2022-09-02T07:41:35.211Z,17.10
2022-09-02T07:44:02.651Z,17.12
2022-09-02T07:46:32.278Z,17.08
2022-09-02T07:49:04.985Z,17.06
2022-09-02T07:51:37.678Z,17.21
2022-09-02T07:54:05.903Z,17.36
2022-09-02T07:56:32.642Z,17.46
2022-09-02T07:58:59.081Z,17.45
2022-09-02T08:01:25.844Z,17.57
2022-09-02T08:03:52.542Z,17.71
2022-09-02T08:06:27.747Z,17.87
2022-09-02T08:09:04.218Z,18.02
2022-09-02T08:11:32.473Z,18.18
2022-09-02T08:13:59.445Z,18.40
2022-09-02T08:16:25.970Z,18.41
2022-09-02T08:18:52.600Z,18.38
2022-09-02T08:21:18.991Z,18.43
2022-09-02T08:23:47.825Z,18.44
2022-09-02T08:26:14.207Z,18.59
2022-09-02T08:28:40.631Z,18.56
2022-09-02T08:31:07.579Z,18.83
2022-09-02T08:33:34.678Z,18.90
2022-09-02T08:36:11.124Z,19.13
2022-09-02T08:38:37.990Z,19.27
2022-09-02T08:41:24.223Z,19.19
2022-09-02T08:43:57.155Z,18.96
2022-09-02T08:46:26.526Z,19.29
2022-09-02T08:49:08.353Z,19.58
2022-09-02T08:51:43.641Z,19.65
2022-09-02T08:54:25.870Z,19.63
2022-09-02T08:56:52.650Z,19.99
2022-09-02T08:59:22.527Z,20.19
2022-09-02T09:02:11.688Z,20.30
2022-09-02T09:05:06.309Z,20.23
2022-09-02T09:07:40.510Z,20.24
2022-09-02T09:10:19.356Z,20.55
2022-09-02T09:13:01.475Z,20.81
2022-09-02T09:16:31.963Z,20.99
2022-09-02T09:19:15.199Z,21.06
2022-09-02T09:21:43.776Z,21.06
2022-09-02T09:24:29.048Z,21.19
2022-09-02T09:26:55.479Z,21.13
2022-09-02T09:29:22.273Z,21.05
2022-09-02T09:31:56.149Z,21.18
2022-09-02T09:34:23.331Z,21.34
2022-09-02T09:36:54.492Z,21.61
2022-09-02T09:39:30.315Z,21.79
2022-09-02T09:42:03.314Z,21.57
2022-09-02T09:44:45.022Z,21.82
2022-09-02T09:47:25.584Z,21.84
2022-09-02T09:49:54.663Z,22.29
2022-09-02T09:52:27.519Z,22.36
2022-09-02T09:55:12.811Z,22.58
2022-09-02T09:57:41.170Z,22.37
2022-09-02T10:00:21.048Z,21.90
2022-09-02T10:02:52.911Z,21.88
2022-09-02T10:05:25.141Z,21.92
2022-09-02T10:08:10.109Z,21.65
2022-09-02T10:10:55.993Z,21.88
2022-09-02T10:13:25.789Z,21.91
2022-09-02T10:16:26.857Z,22.19
2022-09-02T10:19:11.983Z,21.99
2022-09-02T10:21:54.070Z,21.93
2022-09-02T10:24:45.239Z,21.80
2022-09-02T10:27:30.867Z,21.84
2022-09-02T10:30:11.874Z,21.74
2022-09-02T10:33:19.394Z,21.90
2022-09-02T10:35:48.878Z,22.22
2022-09-02T10:38:30.671Z,22.22
2022-09-02T10:41:08.783Z,22.44
2022-09-02T10:43:56.740Z,22.54
2022-09-02T10:46:25.127Z,22.73
2022-09-02T10:49:04.642Z,22.73
2022-09-02T10:51:43.261Z,22.78
2022-09-02T10:55:01.482Z,22.80
2022-09-02T10:57:37.571Z,22.87
2022-09-02T11:00:14.670Z,22.98
2022-09-02T11:03:03.243Z,23.34
2022-09-02T11:05:37.979Z,23.41
2022-09-02T11:08:11.955Z,23.24
2022-09-02T11:11:06.217Z,23.65
2022-09-02T11:13:43.858Z,23.78
2022-09-02T11:16:39.744Z,24.00
2022-09-02T11:19:16.198Z,24.13
2022-09-02T11:22:08.058Z,24.11
2022-09-02T11:24:47.897Z,24.15
2022-09-02T11:27:42.075Z,23.93
2022-09-02T11:30:39.360Z,24.07
2022-09-02T11:33:37.422Z,24.23
2022-09-02T11:36:04.300Z,24.36
2022-09-02T11:38:44.014Z,24.21
2022-09-02T11:41:37.195Z,24.27
2022-09-02T11:44:21.113Z,24.24
2022-09-02T11:47:06.325Z,24.49
2022-09-02T11:50:00.967Z,24.36
2022-09-02T11:52:34.258Z,24.37
2022-09-02T11:55:16.353Z,24.41
2022-09-02T11:57:44.058Z,24.62
2022-09-02T12:00:27.422Z,24.70
2022-09-02T12:03:35.853Z,24.63
2022-09-02T12:06:14.158Z,24.65
2022-09-02T12:08:41.994Z,24.77
2022-09-02T12:11:09.913Z,24.68
2022-09-02T12:13:43.438Z,24.72
2022-09-02T12:16:12.966Z,24.91
2022-09-02T12:18:42.374Z,24.79
2022-09-02T12:21:16.608Z,24.70
2022-09-02T12:23:50.118Z,24.79
2022-09-02T12:26:18.308Z,24.70
2022-09-02T12:28:47.108Z,24.80
2022-09-02T12:31:38.447Z,24.82
2022-09-02T12:34:25.047Z,24.61
2022-09-02T12:36:58.546Z,24.59
2022-09-02T12:39:24.932Z,24.78
2022-09-02T12:42:06.240Z,24.76
2022-09-02T12:44:43.707Z,24.77
2022-09-02T12:47:30.990Z,24.78
2022-09-02T12:50:10.570Z,24.70
2022-09-02T12:52:42.503Z,24.83
2022-09-02T12:55:18.240Z,24.88
2022-09-02T12:57:47.690Z,24.88
2022-09-02T13:00:19.530Z,24.90
2022-09-02T13:03:14.195Z,24.82
2022-09-02T13:05:40.702Z,24.69
2022-09-02T13:08:29.091Z,24.77
2022-09-02T13:10:59.875Z,24.88
2022-09-02T13:13:44.535Z,24.86
2022-09-02T13:16:18.985Z,24.97
2022-09-02T13:19:07.154Z,24.95
2022-09-02T13:21:59.453Z,24.67
2022-09-02T13:24:51.080Z,24.83
2022-09-02T13:27:39.689Z,24.86
2022-09-02T13:30:43.565Z,24.83
2022-09-02T13:33:12.099Z,24.91
2022-09-02T13:35:41.701Z,24.92
2022-09-02T13:38:13.029Z,25.01
2022-09-02T13:40:40.800Z,24.91
2022-09-02T13:43:12.964Z,25.03
2022-09-02T13:45:40.297Z,25.07
2022-09-02T13:48:23.044Z,25.03
2022-09-02T13:50:53.082Z,25.08
2022-09-02T13:53:53.773Z,25.13
2022-09-02T13:56:28.235Z,25.17
2022-09-02T13:58:58.466Z,24.98
2022-09-02T14:01:31.392Z,25.02
2022-09-02T14:04:00.333Z,25.08
2022-09-02T14:06:33.466Z,25.00
2022-09-02T14:09:02.130Z,24.95
2022-09-02T14:11:33.456Z,25.04
2022-09-02T14:14:00.152Z,25.08
2022-09-02T14:16:34.978Z,25.00
2022-09-02T14:19:10.740Z,25.02
2022-09-02T14:21:43.827Z,25.04
2022-09-02T14:24:13.599Z,25.07
2022-09-02T14:26:45.954Z,25.08
2022-09-02T14:29:17.933Z,25.01
2022-09-02T14:31:45.887Z,24.91
2022-09-02T14:34:43.500Z,24.98
2022-09-02T14:37:23.869Z,24.96
2022-09-02T14:40:12.902Z,24.96
2022-09-02T14:42:56.819Z,24.86
2022-09-02T14:45:35.148Z,24.89
2022-09-02T14:48:19.923Z,24.83
2022-09-02T14:50:46.485Z,24.83
2022-09-02T14:53:21.054Z,24.86
2022-09-02T14:55:55.909Z,24.87
2022-09-02T14:58:27.328Z,24.87
2022-09-02T15:00:57.988Z,24.97
2022-09-02T15:03:25.908Z,24.92
2022-09-02T15:05:53.711Z,25.01
2022-09-02T15:08:21.119Z,24.98
2022-09-02T15:10:48.259Z,25.03
2022-09-02T15:13:20.017Z,24.97
2022-09-02T15:15:46.514Z,24.89
2022-09-02T15:18:14.196Z,24.85
2022-09-02T15:20:40.712Z,24.91
2022-09-02T15:23:07.125Z,25.03
2022-09-02T15:25:34.318Z,24.97
2022-09-02T15:28:01.599Z,24.88
2022-09-02T15:30:28.131Z,24.89
2022-09-02T15:32:54.568Z,24.84
2022-09-02T15:35:21.161Z,24.68
2022-09-02T15:37:50.219Z,24.59
2022-09-02T15:40:16.842Z,24.59
2022-09-02T15:42:43.327Z,24.69
2022-09-02T15:45:10.189Z,24.68
2022-09-02T15:47:38.051Z,24.61
2022-09-02T15:50:05.954Z,24.59
2022-09-02T15:52:34.585Z,24.55
2022-09-02T15:55:02.292Z,24.69
2022-09-02T15:57:29.951Z,24.63
2022-09-02T15:59:56.803Z,24.60
2022-09-02T16:02:23.510Z,24.67
2022-09-02T16:04:50.082Z,24.58
2022-09-02T16:07:17.450Z,24.53
2022-09-02T16:09:44.091Z,24.50
2022-09-02T16:12:11.168Z,24.48
2022-09-02T16:14:37.695Z,24.48
2022-09-02T16:17:04.270Z,24.46
2022-09-02T16:19:30.723Z,24.38
2022-09-02T16:21:57.739Z,24.45
2022-09-02T16:24:24.511Z,24.50
2022-09-02T16:26:51.415Z,24.49
2022-09-02T16:29:18.973Z,24.45
2022-09-02T16:32:01.872Z,24.46
2022-09-02T16:34:33.699Z,24.47
2022-09-02T16:37:00.716Z,24.50
2022-09-02T16:39:27.246Z,24.45
2022-09-02T16:41:54.509Z,24.42
2022-09-02T16:44:23.578Z,24.42
2022-09-02T16:46:51.609Z,24.39
2022-09-02T16:49:20.736Z,24.27
2022-09-02T16:51:49.112Z,24.34
2022-09-02T16:54:17.828Z,24.36
2022-09-02T16:56:48.292Z,24.24
2022-09-02T16:59:15.073Z,24.17
2022-09-02T17:01:41.578Z,24.17
2022-09-02T17:04:08.764Z,24.13
2022-09-02T17:06:41.894Z,24.14
2022-09-02T17:09:09.291Z,24.13
2022-09-02T17:11:39.670Z,24.13
2022-09-02T17:14:11.887Z,24.12
2022-09-02T17:16:44.413Z,24.10
2022-09-02T17:19:11.737Z,24.06
2022-09-02T17:21:43.823Z,24.02
2022-09-02T17:24:13.343Z,23.96
2022-09-02T17:26:42.913Z,23.93
2022-09-02T17:29:46.823Z,23.91
2022-09-02T17:32:05.589Z,23.87
2022-09-02T17:34:34.030Z,23.82
2022-09-02T17:37:00.556Z,23.78
2022-09-02T17:39:27.090Z,23.74
2022-09-02T17:41:59.473Z,23.65
2022-09-02T17:44:34.915Z,23.55
2022-09-02T17:47:06.667Z,23.46
2022-09-02T17:49:35.479Z,23.39
2022-09-02T17:52:03.233Z,23.32
2022-09-02T17:54:29.898Z,23.26
2022-09-02T17:57:14.947Z,23.20
2022-09-02T17:59:47.171Z,23.12
2022-09-02T18:02:35.653Z,23.04
2022-09-02T18:05:29.550Z,22.93
2022-09-02T18:08:29.981Z,22.86
2022-09-02T18:10:58.444Z,22.77
2022-09-02T18:13:32.348Z,22.67
2022-09-02T18:16:23.295Z,22.63
2022-09-02T18:19:13.991Z,22.58
2022-09-02T18:22:11.381Z,22.52
2022-09-02T18:24:56.302Z,22.43
2022-09-02T18:28:07.432Z,22.22
2022-09-02T18:30:52.684Z,22.20
2022-09-02T18:33:34.233Z,22.08
2022-09-02T18:36:15.598Z,22.01
2022-09-02T18:39:14.481Z,21.89
2022-09-02T18:42:26.095Z,21.84
2022-09-02T18:45:16.326Z,21.81
2022-09-02T18:47:50.972Z,21.76
2022-09-02T18:50:52.246Z,21.62
2022-09-02T18:53:23.142Z,21.53
2022-09-02T18:55:51.974Z,21.41
2022-09-02T18:58:39.182Z,21.44
2022-09-02T19:01:16.628Z,21.36
2022-09-02T19:03:43.619Z,21.33
2022-09-02T19:06:17.635Z,21.16
2022-09-02T19:08:46.348Z,21.21
2022-09-02T19:11:17.933Z,21.18
2022-09-02T19:13:49.195Z,21.16
2022-09-02T19:16:18.252Z,21.07
2022-09-02T19:18:45.404Z,20.99
2022-09-02T19:21:17.597Z,21.00
2022-09-02T19:23:45.743Z,20.92
2022-09-02T19:26:13.601Z,20.93
2022-09-02T19:28:41.427Z,20.90
2022-09-02T19:31:12.707Z,20.81
2022-09-02T19:33:44.384Z,20.78
2022-09-02T19:36:10.901Z,20.78
2022-09-02T19:38:38.937Z,20.73
2022-09-02T19:41:05.484Z,20.73
2022-09-02T19:43:31.869Z,20.69
2022-09-02T19:45:59.834Z,20.62
2022-09-02T19:48:26.401Z,20.55
2022-09-02T19:50:52.936Z,20.56
2022-09-02T19:53:23.627Z,20.57
2022-09-02T19:55:51.122Z,20.60
2022-09-02T19:58:17.953Z,20.56
2022-09-02T20:00:44.677Z,20.64
2022-09-02T20:03:11.971Z,20.68
2022-09-02T20:05:40.378Z,20.68
2022-09-02T20:08:09.101Z,20.69
2022-09-02T20:10:37.573Z,20.64
2022-09-02T20:13:04.405Z,20.59
2022-09-02T20:15:31.168Z,20.57
2022-09-02T20:18:10.608Z,20.51
2022-09-02T20:20:37.453Z,20.41
2022-09-02T20:23:04.128Z,20.41
2022-09-02T20:25:58.723Z,20.35
2022-09-02T20:28:29.032Z,20.24
2022-09-02T20:31:15.358Z,20.15
2022-09-02T20:33:55.906Z,19.98
2022-09-02T20:36:34.782Z,19.95
2022-09-02T20:39:22.709Z,19.93
2022-09-02T20:42:15.738Z,19.89
2022-09-02T20:45:07.897Z,19.86
2022-09-02T20:47:46.501Z,19.88
2022-09-02T20:50:18.962Z,19.91
2022-09-02T20:52:51.336Z,19.93
2022-09-02T20:55:38.456Z,19.90
2022-09-02T20:58:36.065Z,19.89
2022-09-02T21:01:08.466Z,19.97
2022-09-02T21:03:43.517Z,19.99
2022-09-02T21:06:10.961Z,20.02
2022-09-02T21:09:03.199Z,19.96
2022-09-02T21:11:38.866Z,19.95
2022-09-02T21:14:13.634Z,19.89
2022-09-02T21:16:48.106Z,19.76
2022-09-02T21:19:43.726Z,19.83
2022-09-02T21:22:24.926Z,19.79
2022-09-02T21:24:54.654Z,19.73
2022-09-02T21:27:27.037Z,19.76
2022-09-02T21:30:08.331Z,19.75
2022-09-02T21:32:51.860Z,19.71
2022-09-02T21:35:27.251Z,19.53
2022-09-02T21:37:59.165Z,19.59
2022-09-02T21:40:40.298Z,19.56
2022-09-02T21:43:45.594Z,19.52
2022-09-02T21:46:21.132Z,19.50
2022-09-02T21:49:01.734Z,19.46
2022-09-02T21:51:41.830Z,19.42
2022-09-02T21:54:36.614Z,19.40
2022-09-02T21:57:30.473Z,19.35
2022-09-02T22:00:01.090Z,19.27
2022-09-02T22:02:40.116Z,19.28
2022-09-02T22:05:25.141Z,19.24
2022-09-02T22:08:11.275Z,19.19
2022-09-02T22:10:43.390Z,19.15
2022-09-02T22:13:10.600Z,19.08
2022-09-02T22:15:55.855Z,19.14
2022-09-02T22:18:35.943Z,19.09
2022-09-02T22:21:17.051Z,19.11
2022-09-02T22:23:44.187Z,19.03
2022-09-02T22:26:28.724Z,18.96
2022-09-02T22:29:03.931Z,18.96
2022-09-02T22:31:35.881Z,18.89
2022-09-02T22:34:05.489Z,18.88
2022-09-02T22:36:56.236Z,18.82
2022-09-02T22:39:50.540Z,18.76
2022-09-02T22:42:25.641Z,18.68
2022-09-02T22:45:34.261Z,18.49
2022-09-02T22:48:29.774Z,18.49
2022-09-02T22:51:19.406Z,18.56
2022-09-02T22:53:47.987Z,18.57
2022-09-02T22:56:21.536Z,18.49
2022-09-02T22:59:19.948Z,18.45
2022-09-02T23:01:58.832Z,18.40
2022-09-02T23:04:55.362Z,18.35
2022-09-02T23:07:23.669Z,18.31
2022-09-02T23:09:54.850Z,18.26
2022-09-02T23:12:41.464Z,18.22
2022-09-02T23:15:18.296Z,18.26
2022-09-02T23:18:03.413Z,18.24
2022-09-02T23:20:45.357Z,18.16
2022-09-02T23:23:38.898Z,18.16
2022-09-02T23:26:38.414Z,18.16
2022-09-02T23:29:18.551Z,18.15
2022-09-02T23:32:04.442Z,17.88
2022-09-02T23:35:12.720Z,18.09
2022-09-02T23:37:57.336Z,18.10
2022-09-02T23:40:37.654Z,17.99
2022-09-02T23:43:04.227Z,17.98
2022-09-02T23:45:33.742Z,17.98
2022-09-02T23:48:43.964Z,17.94
2022-09-02T23:51:19.330Z,17.83
2022-09-02T23:54:03.672Z,17.82
2022-09-02T23:56:46.430Z,17.81
2022-09-02T23:59:47.026Z,17.75
